2007 USAGI (2007208N20155)


On this page: IBTrACS data - Map and Plots - Positions - Intensities - Original source data

Summary

Start Jul 27
End Aug 4
Basin WP
LMI 120 kt
Sources jtwc_wp
tokyo
cma
hko
In WMO? Yes
Previous storm 2007 DALILA (EP)
Previous in basin 2007 MAN-YI (WP)
Concurrent storms 2007 DALILA (EP)
2007 USAGI (WP)
2008 MISSING (SI)
2007 CHANTAL (NA)
2007 TS0803 (WP)
2007 ERICK (EP)
2007 PABUK (WP)
Next in basin 2007 TS0803 (WP)
Next storm 2008 MISSING (SI)

top of page IBTrACS Data: File Access

top of page HURSAT Data: File Access

Image of storm

top of page Plots:

Map of storm track will not appear if FTP is down
Time series of cyclone Maximum Sustained Wind will not appear if FTP is down
Time series of cyclone Minimum Central Pressure will not appear if FTP is down

top of page Track Data:Position

jtwc_wp tokyo cma hko
Date Lat Lon Lat Lon Lat Lon Lat Lon
2007-07-27 00:00:00 20.1 155.4
2007-07-27 06:00:00 19.5 154.7
2007-07-27 12:00:00 18.7 154.2 19.0 155.3 19.0 155.3
2007-07-27 18:00:00 18.1 153.4 18.2 153.3 18.2 153.3 18.2 153.3
2007-07-28 00:00:00 17.9 152.1 17.8 150.8 17.8 150.8 17.8 151.3
2007-07-28 06:00:00 17.7 150.8 17.5 149.7 17.5 149.7 17.8 150.3
2007-07-28 12:00:00 17.8 149.4 17.7 149.4 17.7 149.3 17.8 149.4
2007-07-28 18:00:00 18.2 148.2 18.1 148.4 18.1 148.2 18.1 148.4
2007-07-29 00:00:00 18.4 147.0 18.1 146.6 18.1 146.6 18.1 147.2
2007-07-29 06:00:00 18.5 145.5 18.3 144.5 18.3 144.5 18.1 145.5
2007-07-29 12:00:00 18.4 144.1 18.5 143.8 18.5 143.8 18.4 144.1
2007-07-29 18:00:00 18.7 143.3 18.7 143.3 18.7 143.3 18.7 143.5
2007-07-30 00:00:00 19.5 142.7 19.2 142.5 19.3 142.5 19.2 142.5
2007-07-30 06:00:00 20.0 141.9 19.8 142.0 19.9 142.0 20.0 141.7
2007-07-30 12:00:00 20.8 141.4 20.4 141.4 20.4 141.4 20.5 141.3
2007-07-30 18:00:00 21.4 140.7 21.3 140.7 21.3 140.7 21.3 140.7
2007-07-31 00:00:00 21.9 139.9 21.8 140.3 21.9 140.1 21.9 140.1
2007-07-31 06:00:00 22.8 139.6 22.6 139.7 22.6 139.7 22.6 139.7
2007-07-31 12:00:00 23.4 138.9 23.4 139.0 23.4 138.9 23.3 139.0
2007-07-31 18:00:00 24.2 137.9 24.2 137.9 24.2 137.8 24.1 137.8
2007-08-01 00:00:00 25.1 136.9 25.1 137.1 25.1 137.1 25.1 137.0
2007-08-01 06:00:00 26.2 135.8 26.2 135.9 26.3 135.9 26.2 135.9
2007-08-01 12:00:00 27.5 134.9 27.5 135.1 27.5 135.0 27.4 135.0
2007-08-01 18:00:00 29.0 133.8 29.1 133.8 29.1 133.8 29.1 133.7
2007-08-02 00:00:00 30.6 132.9 30.6 132.8 30.6 132.9 30.6 133.0
jtwc_wp tokyo cma hko
2007-08-02 06:00:00 32.0 132.0 31.8 131.9 31.9 131.9 31.8 131.9
2007-08-02 12:00:00 33.1 131.6 33.0 131.4 33.0 131.4 33.0 131.4
2007-08-02 18:00:00 34.4 131.4 34.3 131.3 34.4 131.3 34.3 131.3
2007-08-03 00:00:00 35.7 132.2 35.9 132.1 35.8 132.1 36.0 131.9
2007-08-03 06:00:00 37.2 133.6 36.9 133.5 37.0 133.5 37.0 133.4
2007-08-03 12:00:00 38.6 135.3 38.3 135.1 38.3 135.1 38.3 135.1
2007-08-03 18:00:00 39.7 136.9 39.5 136.7 39.5 136.7 39.5 136.7
2007-08-04 00:00:00 40.6 139.1 40.7 139.0 40.7 139.0 40.7 139.0
2007-08-04 06:00:00 41.2 141.4 41.6 141.6 41.6 141.6 41.3 141.0
2007-08-04 12:00:00 42.0 145.4 42.0 145.4
2007-08-04 18:00:00 42.3 148.9 42.3 148.9

top of pageTrack Data:Intensity

jtwc_wp tokyo cma hko
Date Wind Pres Wind Pres Wind Pres Wind Pres
2007-07-27 00:00:00 15. 1010.
2007-07-27 06:00:00 20. 1007.
2007-07-27 12:00:00 20. 1007. 1006. 23. 1004.
2007-07-27 18:00:00 20. 1007. 1004. 23. 1004. 25. 1006.
2007-07-28 00:00:00 20. 1005. 1004. 29. 1002. 25. 1006.
2007-07-28 06:00:00 20. 1005. 1002. 29. 1002. 25. 1004.
2007-07-28 12:00:00 25. 1002. 1002. 29. 1002. 30. 1002.
2007-07-28 18:00:00 30. 1000. 1002. 29. 1000. 30. 1002.
2007-07-29 00:00:00 35. 996. 1002. 35. 1000. 30. 1002.
2007-07-29 06:00:00 35. 996. 35. 1000. 39. 998. 35. 1000.
2007-07-29 12:00:00 45. 989. 40. 996. 45. 995. 40. 995.
2007-07-29 18:00:00 65. 974. 45. 990. 54. 990. 45. 985.
2007-07-30 00:00:00 65. 974. 55. 985. 58. 985. 50. 983.
2007-07-30 06:00:00 75. 967. 60. 980. 64. 980. 55. 980.
2007-07-30 12:00:00 75. 967. 65. 980. 68. 975. 60. 975.
2007-07-30 18:00:00 80. 963. 70. 975. 68. 970. 60. 973.
2007-07-31 00:00:00 85. 959. 70. 970. 78. 970. 65. 970.
2007-07-31 06:00:00 90. 956. 75. 960. 87. 960. 70. 965.
2007-07-31 12:00:00 105. 944. 80. 955. 87. 950. 80. 955.
2007-07-31 18:00:00 115. 937. 85. 950. 87. 950. 80. 955.
2007-08-01 00:00:00 120. 933. 90. 945. 87. 950. 90. 945.
2007-08-01 06:00:00 115. 937. 90. 945. 97. 940. 90. 945.
2007-08-01 12:00:00 115. 937. 90. 945. 97. 940. 90. 945.
2007-08-01 18:00:00 115. 937. 90. 945. 87. 950. 90. 945.
2007-08-02 00:00:00 105. 944. 90. 945. 87. 950. 90. 945.
jtwc_wp tokyo cma hko
2007-08-02 06:00:00 90. 956. 80. 960. 78. 960. 85. 955.
2007-08-02 12:00:00 80. 963. 60. 975. 58. 980. 60. 975.
2007-08-02 18:00:00 65. 974. 50. 990. 54. 985. 50. 985.
2007-08-03 00:00:00 65. 974. 45. 992. 45. 990. 45. 992.
2007-08-03 06:00:00 55. 982. 40. 994. 39. 995. 40. 994.
2007-08-03 12:00:00 45. 989. 40. 994. 39. 995. 40. 994.
2007-08-03 18:00:00 40. 993. 40. 994. 39. 995. 35. 996.
2007-08-04 00:00:00 30. 1000. 40. 996. 39. 995. 30. 997.
2007-08-04 06:00:00 30. 1000. 1000. 29. 1000. 30. 998.
2007-08-04 12:00:00 1000. 29. 1000.
2007-08-04 18:00:00 1000. 29. 1000.

top of page Links to source data

Source Source file Format
jtwc_wp bwp052007.txt ATCF
tokyo bst_all.txt:Line=56442:USAGI:705 JMA text table
cma CH2007BST.txt:Storm=5:Usagi CMA text table
hko tc-besttrack-data.txt:Line=32578:USAGI HKO Text table